Time;durP1;ratioP1;P1;durP2;ratioP2;P2;SDS_P1;SDS_P2;PMS_P1;PMS_P2;Temp;Humidity;BMP_temperature;BMP_pressure;BME280_temperature;BME280_humidity;BME280_pressure;Samples;Min_cycle;Max_cycle;Signal;HPM_P1;HPM_P2
2022/11/21 00:00:57;;;;;;;16.08;4.30;;;;;;;14.81;67.09;100611.34;4994249;28;20047;-58
2022/11/21 00:03:25;;;;;;;16.27;3.25;;;;;;;15.01;66.13;100612.41;5006828;28;20046;-59
2022/11/21 00:05:52;;;;;;;16.83;3.30;;;;;;;14.85;66.20;100625.34;5015580;28;20057;-59
2022/11/21 00:08:20;;;;;;;20.42;4.25;;;;;;;14.90;66.30;100614.84;5006327;28;20081;-60
2022/11/21 00:10:48;;;;;;;16.92;3.65;;;;;;;14.92;66.30;100625.56;5011107;28;20057;-55
2022/11/21 00:13:17;;;;;;;16.20;3.38;;;;;;;14.79;66.50;100621.16;5005590;28;20509;-58
2022/11/21 00:15:46;;;;;;;18.15;4.00;;;;;;;14.78;66.77;100614.00;4995582;28;20053;-58
2022/11/21 00:18:14;;;;;;;16.17;3.45;;;;;;;14.74;66.90;100622.19;5016291;28;20050;-60
2022/11/21 00:20:42;;;;;;;16.70;3.17;;;;;;;14.70;66.32;100623.22;4996967;28;20661;-59
2022/11/21 00:23:10;;;;;;;15.45;3.38;;;;;;;14.83;67.32;100611.81;5014788;28;20045;-58
2022/11/21 00:25:38;;;;;;;23.35;4.07;;;;;;;14.89;67.51;100606.88;5014198;28;20178;-59
2022/11/21 00:28:05;;;;;;;18.27;3.33;;;;;;;15.01;66.60;100591.00;5014323;28;20046;-59
2022/11/21 00:30:32;;;;;;;18.50;3.65;;;;;;;14.90;66.24;100581.56;4999890;28;21691;-60
2022/11/21 00:33:00;;;;;;;15.40;3.35;;;;;;;14.91;66.64;100574.03;5014607;28;20050;-57
2022/11/21 00:35:27;;;;;;;19.42;3.17;;;;;;;14.90;66.34;100573.22;4996532;28;20058;-60
2022/11/21 00:37:54;;;;;;;16.73;3.17;;;;;;;14.93;66.69;100563.41;5015807;28;20057;-57
2022/11/21 00:40:21;;;;;;;18.52;3.13;;;;;;;15.01;67.20;100566.06;5007454;28;20055;-59
2022/11/21 00:42:48;;;;;;;17.63;2.97;;;;;;;15.02;66.76;100559.38;5014115;28;20049;-58
2022/11/21 00:45:16;;;;;;;15.00;2.95;;;;;;;14.98;66.70;100561.22;4999922;28;20046;-58
2022/11/21 00:47:50;;;;;;;15.13;3.28;;;;;;;14.91;67.60;100555.44;5012541;28;20082;-58
2022/11/21 00:50:17;;;;;;;15.70;3.25;;;;;;;14.95;66.41;100548.03;5003183;28;20053;-58
2022/11/21 00:52:47;;;;;;;16.80;3.40;;;;;;;14.79;67.25;100546.28;5014746;28;20056;-59
2022/11/21 00:55:14;;;;;;;19.08;4.25;;;;;;;14.82;67.51;100549.16;5015042;28;20062;-60
2022/11/21 00:57:42;;;;;;;16.58;3.15;;;;;;;15.08;68.02;100540.53;5011268;28;20055;-58
2022/11/21 01:00:09;;;;;;;19.65;3.92;;;;;;;15.12;66.16;100535.88;5005648;28;20497;-59
2022/11/21 01:02:36;;;;;;;17.10;4.03;;;;;;;14.79;66.98;100538.78;5012075;28;20047;-52
2022/11/21 01:05:04;;;;;;;15.57;3.28;;;;;;;14.72;67.97;100538.53;5015111;28;20046;-57
2022/11/21 01:07:31;;;;;;;17.35;3.42;;;;;;;14.90;67.75;100531.63;5010906;28;20046;-56
2022/11/21 01:09:59;;;;;;;16.13;3.95;;;;;;;15.05;66.59;100517.06;5005494;28;20061;-58
2022/11/21 01:12:26;;;;;;;13.88;3.47;;;;;;;14.89;67.05;100527.22;5014533;28;20053;-56
2022/11/21 01:14:53;;;;;;;21.67;3.95;;;;;;;14.91;67.19;100524.09;5007458;28;20041;-58
2022/11/21 01:17:21;;;;;;;15.30;3.33;;;;;;;14.78;66.69;100512.22;5011834;28;20054;-58
2022/11/21 01:19:49;;;;;;;23.48;4.65;;;;;;;14.85;67.35;100515.22;5015393;28;20496;-57
2022/11/21 01:22:16;;;;;;;19.25;4.38;;;;;;;14.80;68.03;100500.78;5011749;28;20072;-58
2022/11/21 01:24:43;;;;;;;18.92;4.95;;;;;;;14.97;67.23;100506.91;5015098;28;20596;-57
2022/11/21 01:27:11;;;;;;;19.70;4.18;;;;;;;15.01;67.08;100507.00;5010934;28;20062;-58
2022/11/21 01:29:38;;;;;;;20.48;4.45;;;;;;;14.87;67.30;100503.78;5012111;28;20058;-58
2022/11/21 01:32:05;;;;;;;21.83;4.25;;;;;;;15.05;67.40;100503.19;5013904;28;20061;-56
2022/11/21 01:34:33;;;;;;;15.98;3.67;;;;;;;14.99;66.90;100506.56;5007860;28;20058;-58
2022/11/21 01:37:01;;;;;;;15.95;3.90;;;;;;;14.73;67.17;100493.03;5014247;28;20054;-58
2022/11/21 01:39:28;;;;;;;15.23;3.45;;;;;;;14.92;67.54;100496.03;4994044;28;20046;-58
2022/11/21 01:41:55;;;;;;;18.50;3.78;;;;;;;14.88;66.83;100483.19;5015044;28;20062;-58
2022/11/21 01:44:45;;;;;;;16.20;3.15;;;;;;;14.89;68.04;100493.16;5013643;28;20421;-58
2022/11/21 01:47:12;;;;;;;20.17;3.87;;;;;;;14.86;67.00;100482.75;4993645;28;20421;-59
2022/11/21 01:49:39;;;;;;;17.13;3.80;;;;;;;14.80;67.79;100476.63;5012368;28;20061;-58
2022/11/21 01:52:23;;;;;;;17.38;3.60;;;;;;;14.66;68.01;100471.41;5014056;28;20172;-58
2022/11/21 01:55:04;;;;;;;15.60;3.63;;;;;;;14.73;67.83;100462.56;5001329;28;20045;-55
2022/11/21 01:57:36;;;;;;;15.70;3.20;;;;;;;14.84;67.56;100465.63;4996088;28;20489;-57
2022/11/21 02:00:20;;;;;;;14.88;3.10;;;;;;;14.80;68.48;100473.88;5014264;28;20061;-58
2022/11/21 02:02:50;;;;;;;15.20;2.85;;;;;;;14.82;67.35;100468.75;4996550;28;20433;-56
2022/11/21 02:05:18;;;;;;;;;;;;;;;14.71;66.71;100459.31;5002574;28;20043;-57
2022/11/21 02:07:47;;;;;;;12.60;3.80;;;;;;;14.79;67.80;100463.09;4996430;28;19922;-55
2022/11/21 02:10:15;;;;;;;17.40;4.00;;;;;;;14.80;67.80;100454.47;5001171;28;20506;-56
2022/11/21 02:12:48;;;;;;;14.65;3.78;;;;;;;14.77;67.77;100462.66;4993292;28;20066;-58
2022/11/21 02:15:21;;;;;;;20.70;3.85;;;;;;;14.78;67.36;100453.19;5011529;28;20141;-57
2022/11/21 02:17:49;;;;;;;15.50;3.83;;;;;;;14.69;67.84;100450.53;5013579;28;20073;-57
2022/11/21 02:20:24;;;;;;;17.65;3.40;;;;;;;14.63;67.88;100451.91;5013473;28;20152;-59
2022/11/21 02:23:25;;;;;;;15.23;4.20;;;;;;;14.80;67.97;100451.69;5016966;28;20057;-59
2022/11/21 02:25:53;;;;;;;19.25;3.53;;;;;;;14.74;67.83;100438.38;5015904;28;20049;-58
2022/11/21 02:28:22;;;;;;;15.00;3.53;;;;;;;14.84;67.56;100433.19;5014940;28;20054;-58
2022/11/21 02:30:49;;;;;;;19.75;3.53;;;;;;;14.66;68.19;100434.59;5013252;28;20065;-59
2022/11/21 02:33:16;;;;;;;19.70;4.28;;;;;;;14.61;67.24;100420.94;5006779;28;20055;-58
2022/11/21 02:35:44;;;;;;;17.25;3.72;;;;;;;14.71;67.53;100416.91;5017196;28;20524;-60
2022/11/21 02:38:20;;;;;;;16.30;3.28;;;;;;;14.85;67.49;100417.34;5013400;28;20058;-57
2022/11/21 02:40:51;;;;;;;21.55;3.75;;;;;;;14.67;67.78;100414.03;5007160;28;20060;-59
2022/11/21 02:43:24;;;;;;;16.98;3.75;;;;;;;14.71;68.47;100417.72;5016834;28;20493;-57
2022/11/21 02:45:51;;;;;;;17.88;3.50;;;;;;;14.80;67.62;100415.63;5016873;28;20065;-59
2022/11/21 02:48:19;;;;;;;19.30;3.88;;;;;;;14.63;67.72;100413.91;4999526;28;20069;-59
2022/11/21 02:50:46;;;;;;;19.15;3.65;;;;;;;14.78;67.57;100411.59;5008542;28;20055;-59
2022/11/21 02:53:16;;;;;;;20.33;4.65;;;;;;;14.65;67.31;100400.50;5003601;28;20536;-59
2022/11/21 02:55:44;;;;;;;19.10;3.80;;;;;;;14.67;67.56;100389.06;5015803;28;20045;-59
2022/11/21 02:58:11;;;;;;;20.02;3.63;;;;;;;14.71;67.69;100392.78;5007597;28;20054;-58
2022/11/21 03:00:40;;;;;;;15.82;3.47;;;;;;;14.82;67.28;100388.34;5016649;28;20053;-58
2022/11/21 03:03:08;;;;;;;20.13;4.60;;;;;;;14.78;66.77;100393.00;5015870;28;20537;-58
2022/11/21 03:05:36;;;;;;;22.77;4.32;;;;;;;14.63;67.21;100385.38;5006049;28;20053;-57
2022/11/21 03:08:04;;;;;;;20.23;3.95;;;;;;;14.73;67.86;100396.00;5016192;28;20050;-58
2022/11/21 03:10:31;;;;;;;17.88;3.70;;;;;;;14.89;67.36;100390.56;5031809;28;20061;-68
2022/11/21 03:13:02;;;;;;;20.88;3.72;;;;;;;14.97;66.99;100384.88;5006210;28;20053;-59
2022/11/21 03:15:31;;;;;;;19.23;3.75;;;;;;;14.75;65.86;100384.56;5003823;28;20050;-59
2022/11/21 03:18:02;;;;;;;21.98;4.28;;;;;;;14.35;67.13;100384.47;5016337;28;20057;-67
2022/11/21 03:20:31;;;;;;;22.33;4.03;;;;;;;14.50;68.26;100367.97;5002067;28;20054;-68
2022/11/21 03:22:59;;;;;;;16.98;4.03;;;;;;;14.79;67.47;100366.88;5008952;28;20061;-67
2022/11/21 03:25:27;;;;;;;24.75;5.00;;;;;;;14.72;67.94;100358.34;5026975;28;20405;-67
2022/11/21 03:27:54;;;;;;;25.52;4.22;;;;;;;14.85;66.60;100345.25;5016848;28;20068;-67
2022/11/21 03:30:23;;;;;;;17.80;3.95;;;;;;;14.80;66.48;100351.06;5016468;28;20057;-68
2022/11/21 03:32:54;;;;;;;16.70;3.97;;;;;;;14.88;66.45;100350.09;5010654;28;20051;-68
2022/11/21 03:35:23;;;;;;;20.83;4.65;;;;;;;14.91;65.97;100339.09;5015765;28;20375;-66
2022/11/21 03:37:50;;;;;;;17.73;4.47;;;;;;;14.74;66.70;100324.72;5016232;28;20049;-67
2022/11/21 03:40:17;;;;;;;17.80;3.72;;;;;;;14.56;66.42;100325.00;5008375;28;20050;-68
2022/11/21 03:42:44;;;;;;;23.35;4.82;;;;;;;14.68;66.79;100324.97;5016051;28;20536;-66
2022/11/21 03:45:12;;;;;;;17.10;3.72;;;;;;;14.62;66.19;100315.28;5016581;28;20405;-66
2022/11/21 03:47:39;;;;;;;21.77;4.72;;;;;;;14.51;67.31;100318.88;5013259;28;20065;-67
2022/11/21 03:50:07;;;;;;;18.45;3.75;;;;;;;14.61;67.04;100310.06;5022796;28;20066;-66
2022/11/21 03:52:34;;;;;;;16.33;4.20;;;;;;;14.62;66.53;100306.16;5011683;28;20050;-66
2022/11/21 03:55:01;;;;;;;19.13;4.45;;;;;;;14.46;67.80;100300.53;5004881;28;20049;-66
2022/11/21 03:57:29;;;;;;;21.65;4.82;;;;;;;14.20;65.67;100289.00;5015125;28;20045;-66
2022/11/21 03:59:56;;;;;;;22.05;4.53;;;;;;;14.48;67.90;100301.00;5015708;28;20665;-67
2022/11/21 04:02:24;;;;;;;16.95;4.15;;;;;;;14.51;67.16;100299.47;5016765;28;20065;-67
2022/11/21 04:04:51;;;;;;;24.30;4.10;;;;;;;14.42;67.23;100284.94;5000045;28;20067;-66
2022/11/21 04:07:18;;;;;;;21.08;4.43;;;;;;;14.58;67.34;100280.28;5023985;28;20045;-67
2022/11/21 04:09:45;;;;;;;16.27;3.80;;;;;;;14.59;66.56;100263.31;4999164;28;20064;-56
2022/11/21 04:12:13;;;;;;;21.27;4.13;;;;;;;14.56;67.54;100252.91;5020244;28;20060;-58
2022/11/21 04:14:40;;;;;;;23.15;4.60;;;;;;;14.58;67.84;100269.19;5017840;28;20057;-55
2022/11/21 04:17:07;;;;;;;20.88;5.25;;;;;;;14.60;66.49;100255.81;5016602;28;20053;-58
2022/11/21 04:19:35;;;;;;;22.73;4.45;;;;;;;14.77;68.16;100261.03;4997737;28;20073;-67
2022/11/21 04:22:02;;;;;;;18.02;4.22;;;;;;;14.71;66.67;100256.13;5009897;28;20041;-69
2022/11/21 04:24:29;;;;;;;20.75;4.07;;;;;;;14.57;66.98;100248.97;5015987;28;20073;-67
2022/11/21 04:26:57;;;;;;;22.75;4.97;;;;;;;14.27;67.39;100239.38;5015935;28;20054;-58
2022/11/21 04:29:24;;;;;;;19.92;3.95;;;;;;;14.35;67.16;100227.34;5015992;28;20045;-58
2022/11/21 04:31:51;;;;;;;20.13;4.88;;;;;;;14.24;68.30;100239.25;5020573;28;20050;-60
2022/11/21 04:34:19;;;;;;;20.58;4.30;;;;;;;14.36;67.53;100228.97;4996383;28;20050;-59
2022/11/21 04:36:46;;;;;;;28.58;4.80;;;;;;;14.31;67.67;100225.63;5006429;28;20536;-57
2022/11/21 04:39:13;;;;;;;17.42;4.22;;;;;;;14.34;67.41;100228.50;5015895;28;20065;-56
2022/11/21 04:41:41;;;;;;;23.10;4.05;;;;;;;14.32;67.19;100227.25;5013687;28;20057;-58
2022/11/21 04:44:08;;;;;;;17.02;3.90;;;;;;;14.41;67.35;100214.06;5014929;28;20061;-59
2022/11/21 04:46:36;;;;;;;22.27;4.43;;;;;;;14.23;67.38;100209.91;5015188;28;20049;-60
2022/11/21 04:49:03;;;;;;;19.70;4.88;;;;;;;14.30;67.84;100205.44;5014466;28;20054;-57
2022/11/21 04:51:30;;;;;;;25.00;4.95;;;;;;;14.12;68.05;100200.50;5010489;28;20058;-60
2022/11/21 04:53:57;;;;;;;26.63;5.30;;;;;;;13.84;67.57;100196.84;4996130;28;20053;-59
2022/11/21 04:56:25;;;;;;;25.48;4.95;;;;;;;13.87;69.38;100191.41;5005643;28;20505;-59
2022/11/21 04:58:53;;;;;;;18.33;4.53;;;;;;;13.74;69.18;100189.00;5014302;28;20057;-57
2022/11/21 05:01:20;;;;;;;15.40;4.10;;;;;;;13.83;69.50;100184.13;4981134;28;20096;-59
2022/11/21 05:03:48;;;;;;;25.83;4.75;;;;;;;13.98;68.27;100175.91;5013811;28;20057;-56
2022/11/21 05:06:15;;;;;;;32.55;5.25;;;;;;;14.10;67.73;100180.63;5011107;28;20045;-58
2022/11/21 05:08:42;;;;;;;23.00;4.75;;;;;;;14.19;67.46;100176.56;5010838;28;20070;-59
2022/11/21 05:14:02;;;;;;;23.15;4.75;;;;;;;14.41;67.06;100151.13;5015530;28;20516;-59
2022/11/21 05:16:31;;;;;;;26.15;5.93;;;;;;;14.42;66.94;100154.69;5031390;28;20052;-58
2022/11/21 05:18:58;;;;;;;23.38;4.65;;;;;;;14.49;66.57;100141.84;5035063;28;20053;-58
2022/11/21 05:21:26;;;;;;;27.20;5.13;;;;;;;14.51;66.38;100145.09;5021773;28;20405;-59
2022/11/21 05:23:53;;;;;;;20.40;4.45;;;;;;;14.65;65.82;100151.03;5014118;28;20061;-59
2022/11/21 05:26:20;;;;;;;26.50;4.90;;;;;;;14.55;66.20;100147.97;5013580;28;20049;-58
2022/11/21 05:28:47;;;;;;;25.73;4.95;;;;;;;14.68;65.68;100149.50;5015214;28;20050;-59
2022/11/21 05:31:15;;;;;;;21.50;5.10;;;;;;;14.62;65.64;100156.47;5023496;28;20053;-60
2022/11/21 05:33:42;;;;;;;21.10;4.70;;;;;;;14.62;65.56;100162.84;5012760;28;20056;-60
2022/11/21 05:36:09;;;;;;;25.45;5.38;;;;;;;14.70;65.71;100163.81;5008442;28;20050;-59
2022/11/21 05:38:36;;;;;;;22.50;5.05;;;;;;;14.77;65.51;100158.47;5015060;28;20042;-61
2022/11/21 05:41:03;;;;;;;22.05;5.03;;;;;;;14.69;65.69;100153.91;5012662;28;20068;-57
2022/11/21 05:43:46;;;;;;;20.40;4.78;;;;;;;14.82;65.37;100147.09;5013741;28;20050;-60
2022/11/21 05:46:15;;;;;;;26.75;5.22;;;;;;;14.80;65.31;100146.69;5014599;28;20050;-56
2022/11/21 05:48:43;;;;;;;22.90;4.78;;;;;;;14.72;65.36;100133.78;5013636;28;20049;-59
2022/11/21 05:51:11;;;;;;;26.83;4.60;;;;;;;14.80;65.11;100124.50;5011887;28;20049;-58
2022/11/21 05:53:39;;;;;;;22.77;4.78;;;;;;;14.87;64.88;100113.56;5013906;28;20050;-58
2022/11/21 05:56:08;;;;;;;20.98;4.35;;;;;;;14.83;64.83;100109.09;5016159;28;20058;-59
2022/11/21 05:58:35;;;;;;;24.43;5.07;;;;;;;14.76;65.44;100118.06;5017423;28;20631;-57
2022/11/21 06:01:04;;;;;;;26.67;5.00;;;;;;;14.79;65.21;100108.19;5017942;28;20053;-56
2022/11/21 06:03:36;;;;;;;20.77;4.55;;;;;;;14.87;64.74;100102.47;5012824;28;20062;-57
2022/11/21 06:06:06;;;;;;;24.10;4.97;;;;;;;14.67;64.60;100098.00;5019980;28;20057;-59
2022/11/21 06:08:35;;;;;;;21.75;5.45;;;;;;;14.72;64.73;100086.66;5000941;28;20072;-59
2022/11/21 06:11:04;;;;;;;17.08;4.78;;;;;;;14.68;65.38;100074.66;5012448;28;20058;-59
2022/11/21 06:13:32;;;;;;;22.05;5.05;;;;;;;14.77;65.28;100066.19;5000882;28;20790;-60
2022/11/21 06:16:00;;;;;;;22.02;4.35;;;;;;;14.68;65.16;100057.22;5013216;28;20037;-58
2022/11/21 06:18:30;;;;;;;18.88;4.55;;;;;;;14.35;65.30;100047.25;5037093;28;20061;-60
2022/11/21 06:21:02;;;;;;;24.42;5.00;;;;;;;14.24;65.94;100053.66;5018731;28;20061;-56
2022/11/21 06:23:29;;;;;;;25.00;5.53;;;;;;;14.26;66.11;100049.38;5038034;28;20053;-59
2022/11/21 06:25:58;;;;;;;21.75;5.13;;;;;;;14.37;67.41;100056.03;5036022;28;20053;-59
2022/11/21 06:28:26;;;;;;;23.65;5.13;;;;;;;14.37;66.03;100053.25;5024733;28;20651;-58
2022/11/21 06:30:54;;;;;;;23.20;5.65;;;;;;;14.26;66.47;100045.81;5005176;28;20053;-59
2022/11/21 06:33:21;;;;;;;20.52;4.93;;;;;;;14.22;65.82;100042.09;5017424;28;20066;-58
2022/11/21 06:35:48;;;;;;;20.85;5.25;;;;;;;14.11;66.77;100035.47;5015796;28;20045;-58
2022/11/21 06:38:17;;;;;;;23.20;5.72;;;;;;;14.10;66.99;100042.97;5018187;28;20052;-59
2022/11/21 06:40:44;;;;;;;42.08;12.38;;;;;;;13.99;66.96;100028.03;5016326;28;20056;-56
2022/11/21 06:43:12;;;;;;;42.15;18.38;;;;;;;14.04;67.12;100032.47;5017487;28;20046;-59
2022/11/21 06:45:39;;;;;;;31.50;11.48;;;;;;;14.12;66.60;100029.56;5016361;28;20409;-57
2022/11/21 06:48:06;;;;;;;23.38;6.68;;;;;;;13.98;66.99;100033.91;5015693;28;20042;-60
2022/11/21 06:50:34;;;;;;;29.13;10.45;;;;;;;13.94;67.18;100033.81;5016862;28;20064;-60
2022/11/21 06:53:01;;;;;;;27.38;10.68;;;;;;;14.17;66.50;100018.25;5011097;28;20405;-56
2022/11/21 06:55:32;;;;;;;29.60;7.63;;;;;;;14.25;66.34;100008.16;5007577;28;20056;-58
2022/11/21 06:57:59;;;;;;;22.30;5.50;;;;;;;14.07;66.37;100006.88;5002880;28;20645;-57
2022/11/21 07:00:27;;;;;;;25.25;6.25;;;;;;;14.13;66.44;99994.38;5014224;28;20421;-58
2022/11/21 07:02:59;;;;;;;26.58;5.88;;;;;;;14.19;66.38;99974.34;5004523;28;20046;-58
2022/11/21 07:05:30;;;;;;;21.95;4.95;;;;;;;14.17;66.53;99965.63;5001535;28;20438;-58
2022/11/21 07:08:01;;;;;;;22.42;5.78;;;;;;;14.18;65.92;99958.91;5034561;28;20049;-59
2022/11/21 07:10:29;;;;;;;24.55;5.82;;;;;;;14.34;66.12;99937.59;5018908;28;20064;-59
2022/11/21 07:15:47;;;;;;;29.35;6.78;;;;;;;13.98;66.62;99931.47;5032200;28;20145;-59
2022/11/21 07:18:15;;;;;;;28.20;8.90;;;;;;;13.79;66.58;99932.13;5030759;28;20041;-59
2022/11/21 07:20:42;;;;;;;27.83;7.95;;;;;;;13.93;66.83;99921.44;5006367;28;20049;-58
2022/11/21 07:23:09;;;;;;;27.42;7.07;;;;;;;13.99;66.31;99916.44;5015674;28;20057;-59
2022/11/21 07:25:38;;;;;;;28.02;6.88;;;;;;;14.07;66.75;99916.28;5016524;28;20151;-59
2022/11/21 07:28:06;;;;;;;22.23;7.43;;;;;;;13.91;66.92;99909.13;5017025;28;20536;-59
2022/11/21 07:30:35;;;;;;;29.58;6.93;;;;;;;13.97;66.91;99902.16;5017213;28;20053;-57
2022/11/21 07:33:04;;;;;;;29.73;6.25;;;;;;;13.81;66.32;99898.59;5012198;28;20054;-58
2022/11/21 07:35:33;;;;;;;22.67;5.80;;;;;;;13.84;67.20;99895.91;5025950;28;20054;-59
2022/11/21 07:38:01;;;;;;;36.90;7.47;;;;;;;14.00;66.61;99893.94;5015820;28;20044;-57
2022/11/21 07:40:28;;;;;;;23.00;6.15;;;;;;;14.01;66.28;99886.44;5028386;28;20064;-55
2022/11/21 07:43:03;;;;;;;29.33;7.65;;;;;;;14.05;65.72;99890.13;5016297;28;20050;-55
2022/11/21 07:45:37;;;;;;;28.38;6.45;;;;;;;13.58;66.88;99890.06;5015432;28;20057;-58
2022/11/21 07:48:05;;;;;;;28.88;7.55;;;;;;;13.69;67.39;99879.25;5016045;28;20045;-59
2022/11/21 07:50:33;;;;;;;29.75;6.70;;;;;;;13.78;67.76;99877.13;5005007;28;20524;-59
2022/11/21 07:53:02;;;;;;;26.42;7.30;;;;;;;13.76;67.32;99862.81;5009066;28;20513;-59
2022/11/21 07:55:30;;;;;;;22.20;7.10;;;;;;;12.85;63.27;99856.28;5009780;28;20417;-57
2022/11/21 07:58:04;;;;;;;31.65;8.32;;;;;;;12.54;68.31;99842.28;5003615;28;20054;-57
2022/11/21 08:00:34;;;;;;;32.17;8.03;;;;;;;12.44;71.50;99826.19;4994583;28;20068;-58
2022/11/21 08:03:03;;;;;;;26.58;8.55;;;;;;;12.14;67.79;99817.38;5007943;28;20061;-60
2022/11/21 08:05:30;;;;;;;30.25;9.38;;;;;;;11.97;67.75;99817.59;5017384;28;20061;-61
2022/11/21 08:07:57;;;;;;;32.85;9.07;;;;;;;11.37;69.82;99811.16;5008869;28;20053;-60
2022/11/21 08:10:24;;;;;;;30.98;9.18;;;;;;;11.58;70.54;99815.44;5004794;28;20046;-61
2022/11/21 08:12:52;;;;;;;29.75;8.93;;;;;;;11.43;71.04;99815.28;5002688;28;20073;-64
2022/11/21 08:15:19;;;;;;;33.10;9.70;;;;;;;11.80;69.17;99822.53;5006096;28;20042;-61
2022/11/21 08:17:46;;;;;;;36.80;10.32;;;;;;;11.67;69.19;99820.88;5004781;28;20050;-58
2022/11/21 08:20:14;;;;;;;32.20;10.05;;;;;;;12.57;67.59;99810.41;5002390;28;20042;-56
2022/11/21 08:22:42;;;;;;;28.15;9.13;;;;;;;12.38;66.53;99816.53;4999797;28;20061;-59
2022/11/21 08:25:10;;;;;;;30.58;9.27;;;;;;;12.48;67.29;99806.97;5002233;28;20064;-56
2022/11/21 08:27:38;;;;;;;29.38;8.88;;;;;;;12.81;65.72;99810.34;5007960;28;20061;-60
2022/11/21 08:30:07;;;;;;;21.98;7.93;;;;;;;12.61;66.92;99819.59;5008591;28;20051;-58
2022/11/21 08:32:34;;;;;;;34.65;9.32;;;;;;;12.42;65.65;99823.78;5006008;28;20060;-58
2022/11/21 08:35:01;;;;;;;31.70;9.23;;;;;;;11.97;69.50;99816.78;4997674;28;20042;-57
2022/11/21 08:37:28;;;;;;;32.97;8.80;;;;;;;12.62;67.91;99810.16;5021584;28;20049;-58
2022/11/21 08:39:57;;;;;;;26.45;8.00;;;;;;;13.11;65.61;99801.38;4998035;28;20053;-58
2022/11/21 08:42:25;;;;;;;27.52;8.65;;;;;;;12.67;67.34;99809.94;5011167;28;20056;-58
2022/11/21 08:44:52;;;;;;;29.08;8.57;;;;;;;13.08;66.38;99815.94;4993187;28;20053;-55
2022/11/21 08:47:20;;;;;;;23.95;7.50;;;;;;;13.40;64.65;99809.34;5000476;28;20054;-58
2022/11/21 08:49:47;;;;;;;23.50;8.07;;;;;;;13.79;63.66;99796.50;5007088;28;20045;-58
2022/11/21 08:52:16;;;;;;;24.58;7.75;;;;;;;13.66;63.36;99785.88;5005545;28;20776;-58
2022/11/21 08:54:44;;;;;;;23.23;7.85;;;;;;;13.77;63.35;99773.94;5005585;28;20045;-57
2022/11/21 08:57:11;;;;;;;25.10;8.05;;;;;;;13.43;64.23;99769.06;4990989;28;20545;-57
2022/11/21 08:59:38;;;;;;;27.13;7.20;;;;;;;13.78;63.17;99747.84;5006441;28;20377;-58
2022/11/21 09:02:06;;;;;;;26.15;7.10;;;;;;;13.80;62.98;99745.53;5007626;28;20442;-56
2022/11/21 09:04:33;;;;;;;25.58;6.93;;;;;;;13.67;64.04;99738.47;5003747;28;20058;-58
2022/11/21 09:07:00;;;;;;;24.67;7.53;;;;;;;13.79;63.00;99735.59;5000387;28;20038;-58
2022/11/21 09:09:28;;;;;;;28.08;7.30;;;;;;;13.89;63.06;99734.25;5002229;28;20061;-58
2022/11/21 09:11:55;;;;;;;27.05;7.72;;;;;;;13.64;64.06;99735.63;5010119;28;20054;-59
2022/11/21 09:19:59;;;;;;;19.92;7.30;;;;;;;13.91;63.35;99720.88;5006185;28;20398;-62
2022/11/21 09:22:26;;;;;;;22.40;7.88;;;;;;;13.64;63.54;99711.53;5003474;28;20045;-60
2022/11/21 09:24:54;;;;;;;25.75;7.00;;;;;;;13.39;65.88;99710.88;5004977;28;20049;-59
2022/11/21 09:27:21;;;;;;;21.23;6.72;;;;;;;13.33;65.82;99701.28;5004787;28;20034;-61
2022/11/21 09:29:48;;;;;;;20.42;7.65;;;;;;;12.94;64.99;99695.81;5003060;28;20423;-61
2022/11/21 09:32:20;;;;;;;20.98;6.95;;;;;;;12.57;67.86;99684.13;4998703;28;20410;-60
2022/11/21 09:34:48;;;;;;;28.33;7.15;;;;;;;12.59;68.60;99673.53;5007583;28;20052;-62
2022/11/21 09:37:15;;;;;;;20.45;6.80;;;;;;;12.82;67.86;99671.00;5008847;28;20117;-61
2022/11/21 09:39:43;;;;;;;28.05;7.53;;;;;;;12.28;68.97;99660.44;5009306;28;20042;-61
2022/11/21 09:42:29;;;;;;;25.40;6.65;;;;;;;11.95;69.20;99650.75;4992233;28;20050;-59
2022/11/21 09:45:25;;;;;;;21.20;5.93;;;;;;;12.78;69.14;99631.44;5005699;28;20050;-59
2022/11/21 09:47:54;;;;;;;18.15;6.25;;;;;;;12.38;67.51;99623.22;5003724;28;20052;-58
2022/11/21 09:50:35;;;;;;;16.73;5.95;;;;;;;12.67;68.85;99600.75;5002930;28;20050;-57
2022/11/21 09:53:24;;;;;;;18.92;6.30;;;;;;;11.50;69.86;99601.25;5018681;28;20046;-59
2022/11/21 09:56:07;;;;;;;20.35;6.00;;;;;;;11.18;74.99;99594.72;5015047;28;20046;-59
2022/11/21 09:58:44;;;;;;;21.50;6.60;;;;;;;12.21;70.79;99595.91;5026358;28;20046;-55
2022/11/21 10:01:14;;;;;;;18.40;5.45;;;;;;;12.71;69.36;99584.28;5004130;28;20042;-59
2022/11/21 10:03:47;;;;;;;17.73;5.75;;;;;;;12.28;70.32;99579.56;5007072;28;20041;-58
2022/11/21 10:06:19;;;;;;;18.77;6.07;;;;;;;12.20;68.73;99573.00;5006373;28;20053;-61
2022/11/21 10:08:52;;;;;;;18.67;6.03;;;;;;;11.82;70.93;99558.91;5000378;28;20049;-59
2022/11/21 10:11:21;;;;;;;24.00;6.88;;;;;;;11.68;70.72;99558.47;5006999;28;20054;-60
2022/11/21 10:14:17;;;;;;;18.58;5.80;;;;;;;12.01;70.73;99545.28;5008294;28;20618;-60
2022/11/21 10:16:52;;;;;;;18.40;5.65;;;;;;;11.75;72.60;99524.81;5007599;28;20041;-56
2022/11/21 10:19:32;;;;;;;23.05;5.97;;;;;;;12.01;70.57;99530.69;5002980;28;20042;-57
2022/11/21 10:22:35;;;;;;;20.55;5.65;;;;;;;12.23;70.63;99525.41;5013790;28;20061;-58
2022/11/21 10:25:21;;;;;;;28.48;7.10;;;;;;;10.83;73.00;99516.41;4987610;28;20062;-58
2022/11/21 10:27:55;;;;;;;22.30;7.25;;;;;;;11.47;74.57;99512.91;5010538;28;20049;-58
2022/11/21 10:30:22;;;;;;;19.90;5.27;;;;;;;12.60;70.71;99498.38;5008414;28;20433;-59
2022/11/21 10:32:53;;;;;;;25.08;6.28;;;;;;;12.67;68.71;99483.91;4991735;28;20405;-59
2022/11/21 10:35:29;;;;;;;21.55;6.50;;;;;;;12.50;69.49;99485.06;5007170;28;20050;-57
2022/11/21 10:37:59;;;;;;;23.60;5.82;;;;;;;13.14;66.20;99468.91;5011996;28;20416;-58
2022/11/21 10:40:35;;;;;;;34.83;6.20;;;;;;;12.77;67.95;99483.38;5017036;28;20052;-58
2022/11/21 10:46:08;;;;;;;21.38;5.22;;;;;;;13.16;66.06;99446.44;5007553;28;20061;-59
2022/11/21 10:48:35;;;;;;;20.00;5.82;;;;;;;13.26;65.90;99440.31;5013444;28;20473;-58
2022/11/21 10:51:11;;;;;;;24.60;6.05;;;;;;;13.75;64.93;99426.72;5012072;28;20045;-59
2022/11/21 10:56:32;;;;;;;25.17;9.70;;;;;;;12.92;65.96;99427.31;5007892;28;20521;-61
2022/11/21 10:59:11;;;;;;;22.73;5.38;;;;;;;12.26;68.65;99418.97;5011658;28;20061;-60
2022/11/21 11:01:38;;;;;;;28.38;6.72;;;;;;;11.61;70.41;99428.59;5018105;28;20058;-58
2022/11/21 11:04:08;;;;;;;19.58;5.78;;;;;;;12.77;69.74;99411.53;5002816;28;20713;-59
2022/11/21 11:06:58;;;;;;;21.63;5.50;;;;;;;12.88;68.09;99407.06;5013353;28;20049;-59
2022/11/21 11:09:31;;;;;;;27.27;5.80;;;;;;;13.21;65.77;99404.69;4995513;28;20053;-57
2022/11/21 11:12:21;;;;;;;31.52;5.93;;;;;;;13.66;64.52;99404.81;5007568;28;20054;-60
2022/11/21 11:14:53;;;;;;;23.48;6.03;;;;;;;13.50;65.50;99399.38;5015437;28;20049;-60
2022/11/21 11:17:29;;;;;;;21.25;5.57;;;;;;;13.69;64.46;99390.25;4998874;28;20429;-58
2022/11/21 11:20:30;;;;;;;23.40;5.13;;;;;;;13.29;65.77;99384.28;5011507;28;20490;-59
2022/11/21 11:22:57;;;;;;;22.30;5.78;;;;;;;12.81;66.53;99382.84;5016325;28;20045;-60
2022/11/21 11:25:25;;;;;;;23.50;5.85;;;;;;;12.69;68.49;99368.34;5011428;28;20042;-61
2022/11/21 11:27:52;;;;;;;24.42;6.90;;;;;;;13.28;66.01;99358.63;5015089;28;20050;-59
2022/11/21 11:30:20;;;;;;;32.17;10.13;;;;;;;13.63;63.72;99355.75;5007274;28;20497;-59
2022/11/21 11:32:47;;;;;;;30.75;7.45;;;;;;;13.13;65.80;99344.84;5006128;28;20053;-60
2022/11/21 11:35:22;;;;;;;27.08;9.88;;;;;;;13.31;66.24;99337.72;4982709;28;20527;-59
2022/11/21 11:37:59;;;;;;;25.45;9.38;;;;;;;12.71;66.46;99332.88;5020147;28;20068;-56
2022/11/21 11:40:38;;;;;;;21.48;6.90;;;;;;;12.89;67.82;99320.22;5007222;28;20054;-59
2022/11/21 11:52:36;;;;;;;68.73;26.90;;;;;;;12.95;68.18;99252.44;4972027;28;20043;-60
2022/11/21 11:55:14;;;;;;;70.47;21.15;;;;;;;13.83;64.56;99223.63;4965307;28;20053;-56
2022/11/21 11:57:42;;;;;;;31.42;9.00;;;;;;;13.49;64.67;99206.09;4968309;28;20066;-59